Archival Weather

Republic

Farmingdale, New York (KFRG)

Report from: Wednesday, February 21, 2024 7:53 PM EST
Current time: Monday, June 24, 2024 5:14 AM EDT

Current weather – Weather history – Daily summaries
Weather forecast

Temperature1.7°C (35.1°F)
Wind chill-1.1°C (30.1°F)
Dew point-3.9°C (25.0°F)
Winds 5 kts (2.6 m/s, 5.8 mph) East (90°)
Visibility10 mi. (16.1 km)
Clouds Ceiling: Overcast 2,800 ft. (853 m)
Altimeter30.32 in.Hg (1027 mB)
Relative humidity66 %
Density altitude-2,010 ft. (-613 m)
Sea-level pressure102.7 kPa (1027 mB, 30.32 in.Hg)
Remarks Automated weather observing station without precipitation discriminator
Flight conditions Marginal Visual Meteorological Conditions
Raw dataKFRG 220053Z 09005KT 10SM OVC028 02/M04 A3032 RMK AO1 SLP269 T00171039
An error has occurred. This application may no longer respond until reloaded. Reload 🗙